Airport ICAO


18:38 UTC

10°C

Overcast


An affordable passengers' Moving Map for your aircraft. Made for the iPad and the iPhone
More information here

LFPV Velizy


Villacoublay FRANCE   VFR


METAR LFPV 231830Z AUTO 03008KT 9999 OVC028 10/05 Q1029 NOSIG 0h08min

TAF LFPV 231400Z 2315/2415 01005KT 9999 BKN025 BECMG 2402/2404 3000 BR TEMPO 2404/2408 1500 BR OVC004 BECMG 2408/2410 9999 NSW 4h38min





NOTAMS

OPEN